createdAt,value
2018-09-10T00:00:11.198Z,73.80
2018-09-10T00:02:40.197Z,74.70
2018-09-10T00:05:09.218Z,75.60
2018-09-10T00:07:38.247Z,75.90
2018-09-10T00:10:07.216Z,76.90
2018-09-10T00:12:36.234Z,77.30
2018-09-10T00:15:05.443Z,78.20
2018-09-10T00:17:34.436Z,77.50
2018-09-10T00:20:03.618Z,78.20
2018-09-10T00:22:32.755Z,78.00
2018-09-10T00:25:01.843Z,79.00
2018-09-10T00:27:30.923Z,79.40
2018-09-10T00:30:00.004Z,78.50
2018-09-10T00:32:28.995Z,78.70
2018-09-10T00:34:58.104Z,79.30
2018-09-10T00:37:27.180Z,78.40
2018-09-10T00:39:56.287Z,78.30
2018-09-10T00:42:25.405Z,77.40
2018-09-10T00:44:54.489Z,77.50
2018-09-10T00:47:23.592Z,77.40
2018-09-10T00:49:52.672Z,77.20
2018-09-10T00:52:21.775Z,76.80
2018-09-10T00:54:50.863Z,77.30
2018-09-10T00:57:19.942Z,78.50
2018-09-10T00:59:49.073Z,79.00
2018-09-10T01:02:18.218Z,79.20
2018-09-10T01:04:47.352Z,78.50
2018-09-10T01:07:16.472Z,77.20
2018-09-10T01:09:45.517Z,78.50
2018-09-10T01:12:14.622Z,79.00
2018-09-10T01:14:43.723Z,80.00
2018-09-10T01:17:12.837Z,81.20
2018-09-10T01:19:41.789Z,82.20
2018-09-10T01:22:10.904Z,82.70
2018-09-10T01:24:40.016Z,81.90
2018-09-10T01:27:08.996Z,81.20
2018-09-10T01:29:38.083Z,81.80
2018-09-10T01:32:07.157Z,81.40
2018-09-10T01:34:41.169Z,81.30
2018-09-10T01:37:10.196Z,80.60
2018-09-10T01:39:39.184Z,81.00
2018-09-10T01:42:08.188Z,80.80
2018-09-10T01:44:37.244Z,82.10
2018-09-10T01:47:06.335Z,81.50
2018-09-10T01:49:35.428Z,81.30
2018-09-10T01:52:04.529Z,81.70
2018-09-10T01:54:33.568Z,80.90
2018-09-10T01:57:02.512Z,81.10
2018-09-10T01:59:31.610Z,82.70
2018-09-10T02:02:00.615Z,83.10
2018-09-10T02:04:29.588Z,83.40
2018-09-10T02:06:58.552Z,82.90
2018-09-10T02:09:27.584Z,83.10
2018-09-10T02:11:56.565Z,82.70
2018-09-10T02:14:25.687Z,83.80
2018-09-10T02:16:54.711Z,83.60
2018-09-10T02:19:23.632Z,83.40
2018-09-10T02:21:52.637Z,83.70
2018-09-10T02:24:21.648Z,83.20
2018-09-10T02:26:50.652Z,84.40
2018-09-10T02:29:19.744Z,84.40
2018-09-10T02:31:48.687Z,84.30
2018-09-10T02:34:17.828Z,84.50
2018-09-10T02:36:46.916Z,84.70
2018-09-10T02:39:16.028Z,85.50
2018-09-10T02:41:45.291Z,86.90
2018-09-10T02:44:14.865Z,85.90
2018-09-10T02:46:43.975Z,86.90
2018-09-10T02:49:13.007Z,87.20
2018-09-10T02:51:42.007Z,86.60
2018-09-10T02:54:10.987Z,87.80
2018-09-10T02:56:39.975Z,86.90
2018-09-10T02:59:09.062Z,85.90
2018-09-10T03:01:38.143Z,85.50
2018-09-10T03:04:07.164Z,84.90
2018-09-10T03:06:36.268Z,86.80
2018-09-10T03:09:07.802Z,87.10
2018-09-10T03:11:36.888Z,87.90
2018-09-10T03:14:06.309Z,87.70
2018-09-10T03:16:35.284Z,87.00
2018-09-10T03:19:04.385Z,87.30
2018-09-10T03:21:33.404Z,87.00
2018-09-10T03:24:02.626Z,88.20
2018-09-10T03:26:31.776Z,89.00
2018-09-10T03:29:00.867Z,90.10
2018-09-10T03:31:29.973Z,88.70
2018-09-10T03:33:59.076Z,89.50
2018-09-10T03:36:28.036Z,90.30
2018-09-10T03:38:57.159Z,90.10
2018-09-10T03:41:26.354Z,90.80
2018-09-10T03:43:55.556Z,91.10
2018-09-10T03:46:24.670Z,91.30
2018-09-10T03:48:53.728Z,91.10
2018-09-10T03:51:22.829Z,90.80
2018-09-10T03:53:51.919Z,90.50
2018-09-10T03:56:20.901Z,90.40
2018-09-10T03:58:50.013Z,90.40
2018-09-10T04:01:19.117Z,90.70
2018-09-10T04:03:48.217Z,90.30
2018-09-10T04:06:17.096Z,90.40
2018-09-10T04:08:46.197Z,91.30
2018-09-10T04:11:15.297Z,91.00
2018-09-10T04:13:44.280Z,92.20
2018-09-10T04:16:13.378Z,92.60
2018-09-10T04:18:42.452Z,92.80
2018-09-10T04:21:11.601Z,93.80
2018-09-10T04:23:40.590Z,93.90
2018-09-10T04:26:09.652Z,94.20
2018-09-10T04:28:38.842Z,94.20
2018-09-10T04:31:07.931Z,93.90
2018-09-10T04:33:37.045Z,93.30
2018-09-10T04:36:06.312Z,93.20
2018-09-10T04:38:35.208Z,93.10
2018-09-10T04:41:04.516Z,93.20
2018-09-10T04:43:33.904Z,93.40
2018-09-10T04:46:02.998Z,93.30
2018-09-10T04:48:32.245Z,93.10
2018-09-10T04:51:01.304Z,93.60
2018-09-10T04:53:30.285Z,93.90
2018-09-10T04:55:59.272Z,94.50
2018-09-10T04:58:28.372Z,94.50
2018-09-10T05:00:57.580Z,94.40
2018-09-10T05:03:26.659Z,95.10
2018-09-10T05:05:55.779Z,95.30
2018-09-10T05:08:24.851Z,95.30
2018-09-10T05:10:54.108Z,95.60
2018-09-10T05:13:23.055Z,95.50
2018-09-10T05:15:52.041Z,96.00
2018-09-10T05:18:21.154Z,96.10
2018-09-10T05:20:51.257Z,96.50
2018-09-10T05:23:20.353Z,96.00
2018-09-10T05:25:49.484Z,95.80
2018-09-10T05:28:18.591Z,95.70
2018-09-10T05:30:47.747Z,96.30
2018-09-10T05:33:16.729Z,96.50
2018-09-10T05:35:45.863Z,95.90
2018-09-10T05:38:14.980Z,95.80
2018-09-10T05:40:44.118Z,95.80
2018-09-10T05:43:13.184Z,95.80
2018-09-10T05:45:42.305Z,95.50
2018-09-10T05:48:11.392Z,94.90
2018-09-10T05:50:40.397Z,95.80
2018-09-10T05:53:09.398Z,95.90
2018-09-10T05:55:38.652Z,95.80
2018-09-10T05:58:07.558Z,96.20
2018-09-10T06:00:36.680Z,96.70
2018-09-10T06:03:05.576Z,96.70
2018-09-10T06:05:34.579Z,97.10
2018-09-10T06:08:03.720Z,96.90
2018-09-10T06:10:32.570Z,97.40
2018-09-10T06:13:01.510Z,98.20
2018-09-10T06:15:30.541Z,98.80
2018-09-10T06:17:59.500Z,98.60
2018-09-10T06:20:28.554Z,99.80
2018-09-10T06:22:57.576Z,99.90
2018-09-10T06:25:26.576Z,99.90
2018-09-10T06:27:55.597Z,99.90
2018-09-10T06:30:24.653Z,99.90
2018-09-10T06:32:53.664Z,99.90
2018-09-10T06:35:22.756Z,99.90
2018-09-10T06:37:51.748Z,99.90
2018-09-10T06:40:20.771Z,99.90
2018-09-10T06:42:49.741Z,99.90
2018-09-10T06:45:18.828Z,99.90
2018-09-10T06:47:47.936Z,99.90
2018-09-10T06:50:16.936Z,99.90
2018-09-10T06:52:45.832Z,99.90
2018-09-10T06:55:14.904Z,99.90
2018-09-10T06:57:43.905Z,99.90
2018-09-10T07:00:12.956Z,99.90
2018-09-10T07:02:42.076Z,99.90
2018-09-10T07:05:11.350Z,99.90
2018-09-10T07:07:40.640Z,99.90
2018-09-10T07:10:10.079Z,99.90
2018-09-10T07:12:39.096Z,99.90
2018-09-10T07:15:08.175Z,99.90
2018-09-10T07:17:37.189Z,99.90
2018-09-10T07:20:07.344Z,99.90
2018-09-10T07:22:36.754Z,99.90
2018-09-10T07:25:06.094Z,99.90
2018-09-10T07:27:35.310Z,99.90
2018-09-10T07:30:05.253Z,99.90
2018-09-10T07:32:34.309Z,99.90
2018-09-10T07:35:03.340Z,99.90
2018-09-10T07:37:32.479Z,99.90
2018-09-10T07:40:01.606Z,99.90
2018-09-10T07:42:30.913Z,99.90
2018-09-10T07:44:59.973Z,99.60
2018-09-10T07:47:28.994Z,99.50
2018-09-10T07:49:58.069Z,99.70
2018-09-10T07:52:27.153Z,99.90
2018-09-10T07:54:56.373Z,99.90
2018-09-10T07:57:25.458Z,99.90
2018-09-10T07:59:55.049Z,99.90
2018-09-10T08:02:24.130Z,99.90
2018-09-10T08:04:53.264Z,99.20
2018-09-10T08:07:22.384Z,99.60
2018-09-10T08:09:51.431Z,99.30
2018-09-10T08:12:20.423Z,98.80
2018-09-10T08:14:50.045Z,97.90
2018-09-10T08:17:19.128Z,98.30
2018-09-10T08:19:48.356Z,98.00
2018-09-10T08:22:17.320Z,98.00
2018-09-10T08:24:46.435Z,97.20
2018-09-10T08:27:15.519Z,98.80
2018-09-10T08:29:44.605Z,98.30
2018-09-10T08:32:13.611Z,98.20
2018-09-10T08:34:42.711Z,98.00
2018-09-10T08:37:11.673Z,97.90
2018-09-10T08:39:40.798Z,97.50
2018-09-10T08:42:10.071Z,96.60
2018-09-10T08:44:39.212Z,95.70
2018-09-10T08:47:08.588Z,97.70
2018-09-10T08:49:37.790Z,99.90
2018-09-10T08:52:06.897Z,99.40
2018-09-10T08:54:36.390Z,99.00
2018-09-10T08:57:05.203Z,99.30
2018-09-10T08:59:34.156Z,98.50
2018-09-10T09:02:03.759Z,97.10
2018-09-10T09:04:32.667Z,96.60
2018-09-10T09:07:01.723Z,95.90
2018-09-10T09:09:30.778Z,95.60
2018-09-10T09:13:38.268Z,95.00
2018-09-10T09:16:07.545Z,92.80
2018-09-10T09:18:36.537Z,92.20
2018-09-10T09:21:05.552Z,92.50
2018-09-10T09:23:35.123Z,92.80
2018-09-10T09:26:04.242Z,92.50
2018-09-10T09:28:34.250Z,93.20
2018-09-10T09:31:03.453Z,91.40
2018-09-10T09:33:32.462Z,92.10
2018-09-10T09:36:06.734Z,91.30
2018-09-10T09:38:40.774Z,91.20
2018-09-10T09:41:15.037Z,91.20
2018-09-10T09:44:52.236Z,92.20
2018-09-10T09:47:21.240Z,92.50
2018-09-10T09:49:50.286Z,89.40
2018-09-10T09:52:19.262Z,91.40
2018-09-10T09:54:48.458Z,93.30
2018-09-10T09:57:17.563Z,92.40
2018-09-10T09:59:46.846Z,92.90
2018-09-10T10:02:22.048Z,92.60
2018-09-10T10:04:51.172Z,93.20
2018-09-10T10:07:20.382Z,91.50
2018-09-10T10:09:49.376Z,90.40
2018-09-10T10:12:18.613Z,91.20
2018-09-10T10:14:47.770Z,93.10
2018-09-10T10:17:19.695Z,93.00
2018-09-10T10:19:49.497Z,93.40
2018-09-10T10:22:18.622Z,93.30
2018-09-10T10:24:47.732Z,93.00
2018-09-10T10:27:16.839Z,92.10
2018-09-10T10:29:45.929Z,92.70
2018-09-10T10:32:15.014Z,92.10
2018-09-10T10:34:44.008Z,93.00
2018-09-10T10:37:13.103Z,92.60
2018-09-10T10:39:42.170Z,92.80
2018-09-10T10:42:11.393Z,92.10
2018-09-10T10:44:40.684Z,92.40
2018-09-10T10:47:09.931Z,92.10
2018-09-10T10:49:39.226Z,92.10
2018-09-10T10:52:08.650Z,91.80
2018-09-10T10:54:37.936Z,92.00
2018-09-10T10:57:07.363Z,90.90
2018-09-10T10:59:36.727Z,90.50
2018-09-10T11:02:06.253Z,91.20
2018-09-10T11:04:35.593Z,90.60
2018-09-10T11:07:04.705Z,89.70
2018-09-10T11:09:33.861Z,87.10
2018-09-10T11:12:03.016Z,88.80
2018-09-10T11:14:31.993Z,88.20
2018-09-10T11:17:00.972Z,87.60
2018-09-10T11:19:29.946Z,87.00
2018-09-10T11:21:58.975Z,85.70
2018-09-10T11:24:28.030Z,82.00
2018-09-10T11:26:57.187Z,83.00
2018-09-10T11:29:26.340Z,80.30
2018-09-10T11:31:55.340Z,80.20
2018-09-10T11:34:24.446Z,78.50
2018-09-10T11:36:53.736Z,79.20
2018-09-10T11:39:22.835Z,77.50
2018-09-10T11:41:51.800Z,77.90
2018-09-10T11:44:20.896Z,78.60
2018-09-10T11:46:49.919Z,75.90
2018-09-10T11:49:18.657Z,75.30
2018-09-10T11:51:47.442Z,75.30
2018-09-10T11:54:16.457Z,76.40
2018-09-10T11:56:44.374Z,73.10
2018-09-10T11:59:12.479Z,72.30
2018-09-10T12:01:40.603Z,69.00
2018-09-10T12:04:09.671Z,70.70
2018-09-10T12:06:37.910Z,72.80
2018-09-10T12:09:06.946Z,71.80
2018-09-10T12:11:35.182Z,68.10
2018-09-10T12:14:03.236Z,65.20
2018-09-10T12:16:31.161Z,66.20
2018-09-10T12:19:00.355Z,63.50
2018-09-10T12:21:29.481Z,65.00
2018-09-10T12:23:57.677Z,62.30
2018-09-10T12:26:26.818Z,61.40
2018-09-10T12:28:54.903Z,61.10
2018-09-10T12:31:22.975Z,61.40
2018-09-10T12:33:51.160Z,59.70
2018-09-10T12:36:19.282Z,59.50
2018-09-10T12:38:47.330Z,59.30
2018-09-10T12:41:15.400Z,56.70
2018-09-10T12:43:43.548Z,56.80
2018-09-10T12:46:11.626Z,56.30
2018-09-10T12:48:39.711Z,55.90
2018-09-10T12:51:07.783Z,54.70
2018-09-10T12:53:35.963Z,55.20
2018-09-10T12:56:04.138Z,55.10
2018-09-10T12:58:32.210Z,53.90
2018-09-10T13:01:00.280Z,53.60
2018-09-10T13:03:28.344Z,52.90
2018-09-10T13:05:57.465Z,52.10
2018-09-10T13:08:26.619Z,52.20
2018-09-10T13:10:54.690Z,51.80
2018-09-10T13:13:22.868Z,51.10
2018-09-10T13:15:50.952Z,51.20
2018-09-10T13:18:19.228Z,51.70
2018-09-10T13:20:48.294Z,51.60
2018-09-10T13:23:17.363Z,50.70
2018-09-10T13:25:46.471Z,49.70
2018-09-10T13:28:15.523Z,49.20
2018-09-10T13:30:44.743Z,49.60
2018-09-10T13:33:13.744Z,49.00
2018-09-10T13:35:42.719Z,47.80
2018-09-10T13:38:11.768Z,47.70
2018-09-10T13:40:40.943Z,47.00
2018-09-10T13:43:09.919Z,46.20
2018-09-10T13:45:39.804Z,45.50
2018-09-10T13:48:08.795Z,46.30
2018-09-10T13:50:37.843Z,46.40
2018-09-10T13:53:06.914Z,47.40
2018-09-10T13:55:35.818Z,46.40
2018-09-10T13:58:04.872Z,46.60
2018-09-10T14:00:33.989Z,46.70
2018-09-10T14:03:03.120Z,47.20
2018-09-10T14:05:32.190Z,46.10
2018-09-10T14:08:01.162Z,46.50
2018-09-10T14:10:30.149Z,46.20
2018-09-10T14:12:59.140Z,46.30
2018-09-10T14:15:28.305Z,46.50
2018-09-10T14:17:57.443Z,46.50
2018-09-10T14:20:26.531Z,46.20
2018-09-10T14:22:55.517Z,45.50
2018-09-10T14:25:24.616Z,45.90
2018-09-10T14:27:53.761Z,45.70
2018-09-10T14:30:22.908Z,45.90
2018-09-10T14:32:52.128Z,44.90
2018-09-10T14:35:21.267Z,44.80
2018-09-10T14:37:50.480Z,44.90
2018-09-10T14:40:19.728Z,44.70
2018-09-10T14:42:48.795Z,45.40
2018-09-10T14:45:17.921Z,45.60
2018-09-10T14:47:46.989Z,45.60
2018-09-10T14:50:16.107Z,45.80
2018-09-10T14:52:45.210Z,45.90
2018-09-10T14:55:14.281Z,45.50
2018-09-10T14:57:43.493Z,46.60
2018-09-10T15:00:17.533Z,47.00
2018-09-10T15:02:46.677Z,47.20
2018-09-10T15:05:15.800Z,47.40
2018-09-10T15:07:44.848Z,47.50
2018-09-10T15:10:14.003Z,47.60
2018-09-10T15:12:43.147Z,47.90
2018-09-10T15:15:12.146Z,48.40
2018-09-10T15:17:41.195Z,47.90
2018-09-10T15:20:10.778Z,48.00
2018-09-10T15:22:39.827Z,48.30
2018-09-10T15:25:09.031Z,48.10
2018-09-10T15:27:38.220Z,47.80
2018-09-10T15:30:07.550Z,48.40
2018-09-10T15:32:36.508Z,48.70
2018-09-10T15:35:05.700Z,47.80
2018-09-10T15:37:34.829Z,48.10
2018-09-10T15:40:03.895Z,48.50
2018-09-10T15:42:32.920Z,48.70
2018-09-10T15:45:01.885Z,48.90
2018-09-10T15:47:30.796Z,48.20
2018-09-10T15:49:59.766Z,48.90
2018-09-10T15:52:28.766Z,48.90
2018-09-10T15:54:57.791Z,49.10
2018-09-10T15:57:26.744Z,49.50
2018-09-10T15:59:55.803Z,49.50
2018-09-10T16:02:24.729Z,49.30
2018-09-10T16:04:53.936Z,49.60
2018-09-10T16:07:23.103Z,49.70
2018-09-10T16:09:52.112Z,50.50
2018-09-10T16:12:21.328Z,51.10
2018-09-10T16:14:50.326Z,51.60
2018-09-10T16:17:19.392Z,51.40
2018-09-10T16:19:48.548Z,51.90
2018-09-10T16:22:17.502Z,51.10
2018-09-10T16:24:46.475Z,50.60
2018-09-10T16:27:15.537Z,50.90
2018-09-10T16:29:44.676Z,50.60
2018-09-10T16:32:13.897Z,50.70
2018-09-10T16:34:42.864Z,50.40
2018-09-10T16:37:11.957Z,50.60
2018-09-10T16:39:41.043Z,50.50
2018-09-10T16:42:10.203Z,51.20
2018-09-10T16:44:39.165Z,51.70
2018-09-10T16:47:08.442Z,51.80
2018-09-10T16:49:37.440Z,51.90
2018-09-10T16:52:06.532Z,51.70
2018-09-10T16:54:35.633Z,52.10
2018-09-10T16:57:04.368Z,52.10
2018-09-10T16:59:33.532Z,52.10
2018-09-10T17:02:02.689Z,52.10
2018-09-10T17:04:31.770Z,53.10
2018-09-10T17:07:00.806Z,53.10
2018-09-10T17:09:29.810Z,53.10
2018-09-10T17:11:58.886Z,53.30
2018-09-10T17:14:27.868Z,52.90
2018-09-10T17:16:56.866Z,52.20
2018-09-10T17:19:25.851Z,52.00
2018-09-10T17:21:55.072Z,52.40
2018-09-10T17:24:24.037Z,52.50
2018-09-10T17:26:53.137Z,52.50
2018-09-10T17:29:22.237Z,53.10
2018-09-10T17:31:51.328Z,53.10
2018-09-10T17:34:20.386Z,53.20
2018-09-10T17:36:49.397Z,53.40
2018-09-10T17:39:18.616Z,54.10
2018-09-10T17:41:47.601Z,54.10
2018-09-10T17:44:16.591Z,54.20
2018-09-10T17:46:45.787Z,54.10
2018-09-10T17:49:14.880Z,54.30
2018-09-10T17:51:43.999Z,54.00
2018-09-10T17:54:13.084Z,54.00
2018-09-10T17:56:42.280Z,54.40
2018-09-10T17:59:11.403Z,54.90
2018-09-10T18:01:40.489Z,55.50
2018-09-10T18:04:09.552Z,55.60
2018-09-10T18:06:38.687Z,55.80
2018-09-10T18:09:09.612Z,55.80
2018-09-10T18:11:38.622Z,56.30
2018-09-10T18:17:32.869Z,56.40
2018-09-10T18:20:01.901Z,56.70
2018-09-10T18:22:31.120Z,56.60
2018-09-10T18:25:00.251Z,56.80
2018-09-10T18:27:29.201Z,56.80
2018-09-10T18:29:58.290Z,56.50
2018-09-10T18:32:27.271Z,56.60
2018-09-10T18:34:56.348Z,57.00
2018-09-10T18:37:25.494Z,57.50
2018-09-10T18:39:54.548Z,57.10
2018-09-10T18:42:23.577Z,57.10
2018-09-10T18:44:52.663Z,57.30
2018-09-10T18:47:21.733Z,57.60
2018-09-10T18:49:50.840Z,57.90
2018-09-10T18:52:20.361Z,57.80
2018-09-10T18:54:49.312Z,57.90
2018-09-10T18:57:18.481Z,57.90
2018-09-10T18:59:47.530Z,58.00
2018-09-10T19:02:16.520Z,58.30
2018-09-10T19:04:45.756Z,58.50
2018-09-10T19:07:15.009Z,58.50
2018-09-10T19:09:44.427Z,58.40
2018-09-10T19:12:13.739Z,58.70
2018-09-10T19:14:43.182Z,58.80
2018-09-10T19:17:12.527Z,58.70
2018-09-10T19:19:41.801Z,58.70
2018-09-10T19:22:11.070Z,58.60
2018-09-10T19:24:40.229Z,59.20
2018-09-10T19:27:09.543Z,59.20
2018-09-10T19:29:38.535Z,59.10
2018-09-10T19:32:07.828Z,59.00
2018-09-10T19:34:36.904Z,59.10
2018-09-10T19:37:06.180Z,58.90
2018-09-10T19:39:35.304Z,59.10
2018-09-10T19:42:04.520Z,59.10
2018-09-10T19:44:33.602Z,59.20
2018-09-10T19:47:02.778Z,59.60
2018-09-10T19:49:31.855Z,60.10
2018-09-10T19:52:00.951Z,60.10
2018-09-10T19:54:29.992Z,60.60
2018-09-10T19:56:59.707Z,61.10
2018-09-10T19:59:28.819Z,61.60
2018-09-10T20:01:57.840Z,61.70
2018-09-10T20:04:27.098Z,62.10
2018-09-10T20:06:56.295Z,62.10
2018-09-10T20:09:25.601Z,61.90
2018-09-10T20:11:54.970Z,61.50
2018-09-10T20:14:24.171Z,61.20
2018-09-10T20:16:53.281Z,61.30
2018-09-10T20:19:22.536Z,60.70
2018-09-10T20:21:51.895Z,61.40
2018-09-10T20:24:21.261Z,61.40
2018-09-10T20:26:50.437Z,61.60
2018-09-10T20:29:19.660Z,61.60
2018-09-10T20:31:48.859Z,61.70
2018-09-10T20:34:18.054Z,61.80
2018-09-10T20:36:47.038Z,62.10
2018-09-10T20:39:16.431Z,62.30
2018-09-10T20:41:47.058Z,62.90
2018-09-10T20:44:16.235Z,63.30
2018-09-10T20:46:44.705Z,64.40
2018-09-10T20:49:12.853Z,64.50
2018-09-10T20:51:42.162Z,64.90
2018-09-10T20:54:11.309Z,64.10
2018-09-10T20:56:40.522Z,64.50
2018-09-10T20:59:10.217Z,64.40
2018-09-10T21:01:39.216Z,64.00
2018-09-10T21:04:08.494Z,63.80
2018-09-10T21:06:37.902Z,63.70
2018-09-10T21:09:09.327Z,63.70
2018-09-10T21:11:38.335Z,65.00
2018-09-10T21:14:07.432Z,64.40
2018-09-10T21:16:36.538Z,64.50
2018-09-10T21:19:05.742Z,65.80
2018-09-10T21:21:34.796Z,65.40
2018-09-10T21:24:04.125Z,65.50
2018-09-10T21:26:33.242Z,65.00
2018-09-10T21:29:02.292Z,64.90
2018-09-10T21:31:31.416Z,64.90
2018-09-10T21:34:00.395Z,65.10
2018-09-10T21:36:29.401Z,65.00
2018-09-10T21:38:58.612Z,65.20
2018-09-10T21:41:27.504Z,65.50
2018-09-10T21:43:56.503Z,65.60
2018-09-10T21:46:25.684Z,65.50
2018-09-10T21:48:54.780Z,66.10
2018-09-10T21:51:23.996Z,66.00
2018-09-10T21:53:53.081Z,66.20
2018-09-10T21:56:22.256Z,66.50
2018-09-10T21:58:51.543Z,66.90
2018-09-10T22:01:20.879Z,67.20
2018-09-10T22:03:50.101Z,67.20
2018-09-10T22:06:19.578Z,67.60
2018-09-10T22:08:48.543Z,67.30
2018-09-10T22:11:17.729Z,67.40
2018-09-10T22:13:47.025Z,66.90
2018-09-10T22:16:16.276Z,67.40
2018-09-10T22:18:45.383Z,67.00
2018-09-10T22:21:14.583Z,67.50
2018-09-10T22:23:43.815Z,69.00
2018-09-10T22:26:13.124Z,69.00
2018-09-10T22:28:42.456Z,69.80
2018-09-10T22:31:11.643Z,69.90
2018-09-10T22:33:41.027Z,69.50
2018-09-10T22:36:10.124Z,70.30
2018-09-10T22:38:39.216Z,70.20
2018-09-10T22:41:08.327Z,70.10
2018-09-10T22:43:37.616Z,69.60
2018-09-10T22:46:06.940Z,69.00
2018-09-10T22:48:36.028Z,69.20
2018-09-10T22:51:05.148Z,69.10
2018-09-10T22:53:34.315Z,70.10
2018-09-10T22:56:03.395Z,70.90
2018-09-10T22:58:32.496Z,70.90
2018-09-10T23:01:01.671Z,71.60
2018-09-10T23:03:30.693Z,72.60
2018-09-10T23:05:59.819Z,71.60
2018-09-10T23:08:28.905Z,71.70
2018-09-10T23:10:58.098Z,73.60
2018-09-10T23:13:27.252Z,74.20
2018-09-10T23:15:56.236Z,73.40
2018-09-10T23:18:25.576Z,73.00
2018-09-10T23:20:54.752Z,73.00
2018-09-10T23:23:23.856Z,73.60
2018-09-10T23:25:52.941Z,73.30
2018-09-10T23:28:22.116Z,73.80
2018-09-10T23:30:51.269Z,73.20
2018-09-10T23:33:20.657Z,72.40
2018-09-10T23:35:49.873Z,72.30
2018-09-10T23:38:19.031Z,72.90
2018-09-10T23:40:48.376Z,72.10
2018-09-10T23:43:17.652Z,71.90
2018-09-10T23:45:46.836Z,71.70
2018-09-10T23:48:16.251Z,71.80
2018-09-10T23:50:45.468Z,72.30
2018-09-10T23:53:14.547Z,71.90
2018-09-10T23:55:43.782Z,72.10
2018-09-10T23:58:13.069Z,71.30
